Time;durP1;ratioP1;P1;durP2;ratioP2;P2;SDS_P1;SDS_P2;PMS_P1;PMS_P2;Temp;Humidity;BMP_temperature;BMP_pressure;BME280_temperature;BME280_humidity;BME280_pressure;Samples;Min_cycle;Max_cycle;Signal;HPM_P1;HPM_P2
2022/09/10 00:01:27;;;;;;;13.95;4.07;;;;;;;16.27;81.29;100607.53;5071493;28;20070;-62
2022/09/10 00:03:55;;;;;;;18.38;3.53;;;;;;;16.29;81.68;100610.00;5073707;28;20041;-60
2022/09/10 00:06:26;;;;;;;19.80;6.43;;;;;;;16.30;81.56;100609.81;5085501;28;20093;-61
2022/09/10 00:08:57;;;;;;;20.08;6.10;;;;;;;16.22;80.88;100614.47;5081719;28;20040;-60
2022/09/10 00:11:30;;;;;;;9.25;2.97;;;;;;;16.17;80.89;100616.91;5077058;28;20136;-60
2022/09/10 00:13:58;;;;;;;12.65;2.60;;;;;;;16.00;81.54;100613.69;5068657;28;20045;-61
2022/09/10 00:16:26;;;;;;;16.85;4.40;;;;;;;15.93;82.36;100611.78;5078194;28;20044;-60
2022/09/10 00:18:53;;;;;;;7.93;2.15;;;;;;;15.88;81.92;100614.22;5081139;28;20040;-60
2022/09/10 00:21:20;;;;;;;9.38;2.95;;;;;;;15.82;82.36;100608.78;5068639;28;20199;-59
2022/09/10 00:23:47;;;;;;;44.65;22.40;;;;;;;15.87;83.64;100620.56;5063562;28;20075;-58
2022/09/10 00:26:24;;;;;;;10.98;4.20;;;;;;;15.89;82.62;100610.50;5077201;28;20048;-59
2022/09/10 00:28:53;;;;;;;8.73;2.65;;;;;;;15.97;82.72;100612.25;5067310;28;20044;-61
2022/09/10 00:31:21;;;;;;;13.55;2.92;;;;;;;16.08;82.51;100618.88;5086938;28;20132;-61
2022/09/10 00:33:49;;;;;;;6.72;1.60;;;;;;;16.07;83.96;100615.41;5074611;28;20073;-60
2022/09/10 00:36:21;;;;;;;37.95;8.23;;;;;;;16.09;82.18;100617.88;5077810;28;20036;-63
2022/09/10 00:38:49;;;;;;;17.58;5.53;;;;;;;16.20;83.00;100614.66;5081316;28;20040;-63
2022/09/10 00:41:18;;;;;;;76.22;45.65;;;;;;;16.21;82.12;100615.50;5085303;28;20113;-61
2022/09/10 00:43:53;;;;;;;292.05;161.35;;;;;;;16.25;82.87;100608.75;5087969;28;20052;-59
2022/09/10 00:46:36;;;;;;;14.48;4.72;;;;;;;16.16;81.17;100608.06;5076628;28;20059;-60
2022/09/10 00:49:13;;;;;;;22.23;2.80;;;;;;;16.16;81.99;100609.91;5074871;28;20048;-61
2022/09/10 00:51:40;;;;;;;6.88;2.10;;;;;;;16.25;81.56;100606.06;5076369;28;20135;-61
2022/09/10 00:54:07;;;;;;;28.75;3.35;;;;;;;16.31;82.89;100608.78;5070945;28;20052;-61
2022/09/10 00:56:35;;;;;;;10.48;2.58;;;;;;;16.24;82.53;100615.13;5075661;28;20028;-59
2022/09/10 00:59:05;;;;;;;8.60;1.70;;;;;;;16.18;81.49;100606.00;5076371;28;20032;-59
2022/09/10 01:01:33;;;;;;;10.48;3.05;;;;;;;16.16;81.61;100608.06;5086749;28;20093;-61
2022/09/10 01:04:02;;;;;;;8.68;3.30;;;;;;;16.25;82.60;100606.91;5074165;28;20363;-62
2022/09/10 01:06:29;;;;;;;11.35;2.53;;;;;;;16.19;81.10;100606.84;5080617;28;20040;-65
2022/09/10 01:08:56;;;;;;;21.70;9.38;;;;;;;16.29;81.43;100607.34;5079380;28;20052;-61
2022/09/10 01:11:53;;;;;;;15.13;4.40;;;;;;;16.48;81.17;100603.13;5076932;28;20052;-61
2022/09/10 01:14:37;;;;;;;15.23;6.40;;;;;;;16.66;79.22;100597.25;5061829;28;20051;-61
2022/09/10 01:17:24;;;;;;;22.33;8.48;;;;;;;16.59;79.83;100599.94;5076107;28;20051;-60
2022/09/10 01:20:24;;;;;;;47.92;26.92;;;;;;;16.77;79.54;100594.06;5076880;28;20068;-63
2022/09/10 01:23:20;;;;;;;11.80;2.78;;;;;;;16.81;79.11;100597.16;5066325;28;20054;-61
2022/09/10 01:26:16;;;;;;;20.02;6.30;;;;;;;16.88;78.84;100593.50;5087157;28;20075;-62
2022/09/10 01:28:55;;;;;;;17.63;4.05;;;;;;;16.78;78.35;100593.00;5072183;28;20079;-64
2022/09/10 01:31:30;;;;;;;9.40;2.10;;;;;;;16.79;78.71;100592.00;5071698;28;20032;-64
2022/09/10 01:34:07;;;;;;;10.40;4.03;;;;;;;16.89;78.21;100584.44;5088830;28;20400;-60
2022/09/10 01:39:10;;;;;;;30.13;4.60;;;;;;;16.75;78.95;100587.22;5063006;28;20433;-60
2022/09/10 01:41:37;;;;;;;12.07;3.50;;;;;;;16.29;80.40;100585.91;5058501;28;20059;-60
2022/09/10 01:44:43;;;;;;;237.43;151.85;;;;;;;16.09;81.89;100594.63;5043127;28;20072;-61
2022/09/10 01:47:52;;;;;;;13.13;2.80;;;;;;;16.28;82.07;100595.81;5055410;28;20091;-62
2022/09/10 01:50:48;;;;;;;17.60;3.67;;;;;;;16.50;80.46;100598.44;5045853;28;20068;-60
2022/09/10 01:53:50;;;;;;;12.48;3.00;;;;;;;16.60;80.02;100592.72;5051109;28;20495;-60
2022/09/10 01:56:34;;;;;;;9.88;2.47;;;;;;;16.59;79.90;100588.38;5039877;28;20136;-59
2022/09/10 01:59:16;;;;;;;152.15;59.90;;;;;;;16.55;81.09;100590.59;5056837;28;20076;-61
2022/09/10 02:01:51;;;;;;;15.15;5.05;;;;;;;16.54;81.25;100582.81;5064091;28;20128;-62
2022/09/10 02:04:20;;;;;;;6.70;1.75;;;;;;;16.54;81.66;100593.50;5038998;28;20517;-64
2022/09/10 02:06:50;;;;;;;12.50;3.63;;;;;;;16.42;81.47;100588.69;5041476;28;20373;-62
2022/09/10 02:09:18;;;;;;;15.65;4.63;;;;;;;16.24;82.43;100586.50;5044360;28;20403;-62
2022/09/10 02:11:48;;;;;;;34.25;13.00;;;;;;;16.28;82.37;100585.09;5049249;28;20053;-61
2022/09/10 02:14:35;;;;;;;9.75;2.30;;;;;;;16.10;83.05;100584.75;5050428;28;20119;-61
2022/09/10 02:17:19;;;;;;;10.20;3.63;;;;;;;15.98;83.51;100586.31;5061747;28;20368;-62
2022/09/10 02:19:50;;;;;;;55.45;29.00;;;;;;;16.24;82.60;100591.03;5051750;28;20073;-62
2022/09/10 02:22:19;;;;;;;54.47;28.95;;;;;;;16.19;83.03;100582.75;5061875;28;20120;-60
2022/09/10 02:24:45;;;;;;;9.00;2.10;;;;;;;15.94;83.98;100583.19;5056883;28;20048;-62
2022/09/10 02:27:13;;;;;;;13.00;2.65;;;;;;;16.01;85.09;100585.91;5054510;28;20052;-62
2022/09/10 09:13:29;;;;;;;19.15;7.63;;;;;;;16.08;98.32;100694.66;5585206;24;19960;-55
2022/09/10 09:19:06;;;;;;;18.45;7.95;;;;;;;16.00;99.84;100685.94;5109808;27;20372;-54
2022/09/10 09:24:40;;;;;;;25.35;12.10;;;;;;;15.69;100.00;100676.31;5108519;27;20416;-58
2022/09/10 09:27:11;;;;;;;21.77;10.85;;;;;;;15.69;100.00;100674.47;5117856;28;20446;-57
2022/09/10 09:29:49;;;;;;;21.58;9.35;;;;;;;15.78;100.00;100672.53;5122692;27;20047;-57
2022/09/10 09:32:19;;;;;;;19.17;9.20;;;;;;;15.61;100.00;100679.94;5122305;28;20043;-57
2022/09/10 09:34:50;;;;;;;23.45;10.52;;;;;;;15.78;100.00;100685.91;5111594;28;20315;-58
2022/09/10 09:37:23;;;;;;;23.05;10.00;;;;;;;15.80;100.00;100683.06;5096505;28;20043;-57
2022/09/10 09:43:02;;;;;;;19.85;9.48;;;;;;;15.92;100.00;100679.69;5126086;27;20704;-56
2022/09/10 09:45:42;;;;;;;21.08;9.95;;;;;;;15.91;100.00;100679.88;5114549;28;20040;-57
2022/09/10 09:48:14;;;;;;;23.08;9.73;;;;;;;15.93;100.00;100681.34;5118012;27;20050;-59
2022/09/10 09:50:46;;;;;;;20.60;9.07;;;;;;;15.98;100.00;100678.09;5125980;28;20044;-56
2022/09/10 09:53:17;;;;;;;20.15;9.85;;;;;;;15.96;100.00;100674.78;5094661;28;20054;-57
2022/09/10 09:55:48;;;;;;;;;;;;;;;15.93;100.00;100680.50;5122690;28;20055;-60
2022/09/10 09:58:26;;;;;;;20.58;9.88;;;;;;;15.95;100.00;100677.63;5121583;28;19926;-60
2022/09/10 10:01:15;;;;;;;21.30;10.45;;;;;;;15.97;100.00;100676.44;5112456;28;20436;-63
2022/09/10 10:03:47;;;;;;;22.92;10.32;;;;;;;15.87;100.00;100673.25;5121686;27;20055;-63
2022/09/10 10:06:15;;;;;;;;;;;;;;;15.91;100.00;100675.34;5121506;28;20043;-63
2022/09/10 10:09:19;;;;;;;20.17;9.43;;;;;;;16.00;100.00;100667.19;5113416;27;20361;-63
2022/09/10 10:12:06;;;;;;;21.13;10.10;;;;;;;16.03;100.00;100670.31;5105346;28;20047;-61
2022/09/10 10:14:38;;;;;;;18.15;10.25;;;;;;;15.95;99.19;100670.44;5114548;27;20040;-61
2022/09/10 10:20:07;;;;;;;23.42;10.02;;;;;;;15.97;100.00;100678.28;5119974;27;20382;-63
2022/09/10 10:22:36;;;;;;;24.35;10.82;;;;;;;15.73;100.00;100664.22;5110048;27;20062;-65
2022/09/10 10:25:05;;;;;;;21.58;10.50;;;;;;;15.87;100.00;100667.91;5117428;28;20559;-65
2022/09/10 10:27:36;;;;;;;27.92;11.07;;;;;;;15.84;100.00;100670.94;5102883;27;20683;-65
2022/09/10 10:32:53;;;;;;;24.55;10.50;;;;;;;15.93;100.00;100662.63;5113751;27;20694;-64
2022/09/10 10:35:45;;;;;;;21.10;10.50;;;;;;;16.09;100.00;100671.41;5091770;28;20424;-62
2022/09/10 10:38:36;;;;;;;19.83;10.10;;;;;;;16.07;100.00;100662.75;5096141;28;20040;-57
2022/09/10 10:44:38;;;;;;;20.40;9.70;;;;;;;15.99;100.00;100669.06;5113244;27;20368;-60
2022/09/10 10:47:31;;;;;;;20.10;9.63;;;;;;;16.00;100.00;100677.91;5101287;28;20037;-60
2022/09/10 10:50:20;;;;;;;29.17;11.07;;;;;;;16.02;100.00;100670.50;5098424;28;20039;-53
2022/09/10 10:53:26;;;;;;;23.02;11.00;;;;;;;16.03;100.00;100677.53;5095092;28;20040;-56
2022/09/10 10:56:03;;;;;;;22.27;10.73;;;;;;;16.10;100.00;100679.25;5097735;28;20044;-50
2022/09/10 11:01:32;;;;;;;23.70;10.95;;;;;;;16.14;100.00;100693.06;5129987;27;20165;-48
2022/09/10 11:04:25;;;;;;;19.70;11.00;;;;;;;15.88;100.00;100680.25;5108734;28;20052;-51
2022/09/10 11:06:59;;;;;;;21.00;11.55;;;;;;;15.81;100.00;100674.00;5108746;28;20036;-48
2022/09/10 11:09:37;;;;;;;24.20;12.05;;;;;;;15.71;100.00;100683.13;5109984;28;20126;-49
2022/09/10 11:12:10;;;;;;;23.95;13.13;;;;;;;15.71;100.00;100684.97;5108280;28;20043;-50
2022/09/10 11:14:48;;;;;;;22.38;13.15;;;;;;;15.68;100.00;100686.19;5109644;28;20040;-51
2022/09/10 11:17:22;;;;;;;27.33;12.38;;;;;;;15.69;100.00;100682.50;5095367;28;20075;-48
2022/09/10 11:20:20;;;;;;;26.08;12.85;;;;;;;15.75;100.00;100686.28;5090284;28;20044;-50
2022/09/10 11:23:13;;;;;;;21.83;12.60;;;;;;;15.86;100.00;100684.94;5108034;28;20067;-48
2022/09/10 11:25:53;;;;;;;23.23;12.77;;;;;;;15.99;100.00;100685.09;5108669;28;20051;-56
2022/09/10 11:28:27;;;;;;;20.40;12.18;;;;;;;15.95;100.00;100691.84;5091188;28;20488;-56
2022/09/10 11:31:00;;;;;;;27.40;13.00;;;;;;;15.93;100.00;100685.84;5109366;28;20047;-56
2022/09/10 11:33:52;;;;;;;27.27;13.27;;;;;;;16.18;100.00;100683.63;5107989;28;20062;-55
2022/09/10 11:36:28;;;;;;;22.33;12.70;;;;;;;16.38;100.00;100680.28;5109072;28;20051;-56
2022/09/10 11:39:22;;;;;;;26.88;14.60;;;;;;;16.55;100.00;100680.84;5087697;28;20105;-55
2022/09/10 11:41:53;;;;;;;24.10;13.73;;;;;;;16.54;100.00;100687.22;5094868;28;20055;-55
2022/09/10 11:47:18;;;;;;;24.23;13.32;;;;;;;16.67;100.00;100685.44;5125475;27;20371;-55
2022/09/10 11:50:22;;;;;;;31.08;11.60;;;;;;;16.67;98.10;100681.94;5105423;28;20039;-56
2022/09/10 11:52:49;;;;;;;19.77;12.18;;;;;;;16.62;98.62;100685.19;5111666;27;20040;-55
2022/09/10 11:55:16;;;;;;;29.27;14.00;;;;;;;16.55;99.41;100691.53;5125978;27;20028;-55
2022/09/10 11:58:10;;;;;;;25.45;11.95;;;;;;;16.64;98.30;100693.88;5116469;28;20043;-55
2022/09/10 12:00:51;;;;;;;22.52;12.10;;;;;;;16.68;99.35;100688.94;5113233;28;20043;-54
2022/09/10 12:03:40;;;;;;;21.17;12.70;;;;;;;16.66;97.89;100685.63;5098405;28;20050;-54
2022/09/10 12:06:34;;;;;;;24.55;12.55;;;;;;;16.75;98.37;100694.34;5112926;28;20041;-55
2022/09/10 12:12:25;;;;;;;25.52;14.32;;;;;;;16.96;95.95;100698.88;5118544;27;20384;-55
2022/09/10 12:14:52;;;;;;;25.92;13.52;;;;;;;17.00;95.79;100697.44;5105924;28;20079;-53
2022/09/10 12:17:28;;;;;;;21.88;13.10;;;;;;;17.03;96.23;100691.69;5089647;28;20052;-50
2022/09/10 12:19:58;;;;;;;24.02;12.43;;;;;;;16.92;95.56;100692.22;5107509;28;20048;-46
2022/09/10 12:22:42;;;;;;;27.90;12.70;;;;;;;17.07;95.19;100698.31;5108803;28;20044;-53
2022/09/10 12:25:21;;;;;;;25.00;13.48;;;;;;;17.38;94.10;100697.00;5103923;28;20050;-48
2022/09/10 12:27:55;;;;;;;24.20;13.43;;;;;;;17.54;94.37;100695.84;5104854;28;20043;-47
2022/09/10 12:33:26;;;;;;;23.25;12.93;;;;;;;17.54;94.09;100693.97;5110420;27;20471;-50
2022/09/10 12:35:53;;;;;;;28.73;13.40;;;;;;;17.43;95.10;100689.19;5089223;28;20062;-51
2022/09/10 12:44:38;;;;;;;25.48;13.85;;;;;;;17.11;95.93;100693.38;5060982;28;20378;-52
2022/09/10 12:49:56;;;;;;;23.13;14.00;;;;;;;17.32;97.46;100682.56;5110063;27;20355;-52
2022/09/10 12:55:34;;;;;;;31.73;16.35;;;;;;;17.88;95.15;100673.44;5105385;27;20383;-52
2022/09/10 12:58:41;;;;;;;27.92;13.30;;;;;;;18.18;92.83;100678.47;5095362;28;20042;-53
2022/09/10 13:04:29;;;;;;;21.13;11.63;;;;;;;18.39;90.20;100664.81;5091864;27;20405;-50
2022/09/10 13:07:00;;;;;;;23.55;12.75;;;;;;;18.34;88.48;100667.31;5055876;28;20043;-55
2022/09/10 13:09:42;;;;;;;19.20;11.10;;;;;;;18.08;89.60;100678.03;5070401;28;20041;-54
2022/09/10 13:12:19;;;;;;;18.38;11.38;;;;;;;18.10;89.79;100668.75;5076492;28;20059;-53
2022/09/10 13:14:51;;;;;;;22.42;10.68;;;;;;;18.01;88.98;100668.13;5079637;28;20044;-51
2022/09/10 13:17:58;;;;;;;20.00;10.75;;;;;;;17.98;89.01;100676.56;5075133;28;20044;-55
2022/09/10 13:25:46;;;;;;;20.55;10.57;;;;;;;17.68;90.80;100684.09;5092574;27;20374;-52
2022/09/10 13:36:40;;;;;;;20.80;11.23;;;;;;;17.41;93.93;100692.06;5109711;27;20358;-52
2022/09/10 13:39:37;;;;;;;19.50;11.23;;;;;;;17.18;96.59;100697.75;5110250;28;20593;-52
2022/09/10 13:47:41;;;;;;;22.33;12.77;;;;;;;16.97;99.96;100689.78;5130400;27;20440;-52
2022/09/10 13:50:15;;;;;;;20.98;13.38;;;;;;;16.97;100.00;100696.00;5109879;28;20083;-51
2022/09/10 13:52:45;;;;;;;19.70;12.13;;;;;;;17.04;99.06;100702.19;5109581;28;20044;-52
2022/09/10 13:55:19;;;;;;;24.00;12.65;;;;;;;17.16;99.98;100698.97;5110085;28;20135;-53
2022/09/10 13:57:49;;;;;;;20.85;12.20;;;;;;;17.10;98.45;100703.28;5091621;28;20043;-53
2022/09/10 14:00:22;;;;;;;24.45;12.30;;;;;;;17.16;98.88;100704.34;5109819;28;20079;-53
2022/09/10 14:02:52;;;;;;;20.20;12.13;;;;;;;17.20;98.15;100697.53;5109719;28;20055;-54
2022/09/10 14:05:43;;;;;;;20.90;13.10;;;;;;;17.15;99.55;100687.41;5100680;28;20058;-54
2022/09/10 14:08:16;;;;;;;24.52;11.25;;;;;;;17.11;98.56;100691.53;5129818;28;20040;-54
2022/09/10 14:10:50;;;;;;;23.38;11.95;;;;;;;17.22;98.33;100688.28;5130173;28;20484;-53
2022/09/10 14:13:23;;;;;;;20.45;11.25;;;;;;;17.30;97.80;100687.28;5130253;28;20059;-53
2022/09/10 14:15:51;;;;;;;24.92;12.18;;;;;;;17.25;97.78;100677.16;5129891;28;20074;-53
2022/09/10 14:18:19;;;;;;;21.38;12.55;;;;;;;17.26;98.87;100677.97;5130117;28;20057;-52
2022/09/10 14:20:47;;;;;;;19.00;12.48;;;;;;;17.23;99.61;100675.72;5111738;28;20047;-53
2022/09/10 14:23:15;;;;;;;28.38;10.82;;;;;;;17.22;98.81;100680.22;5130035;28;20130;-53
2022/09/10 14:25:44;;;;;;;23.10;11.90;;;;;;;17.33;99.24;100683.38;5129561;28;20430;-52
2022/09/10 14:28:26;;;;;;;25.15;12.02;;;;;;;17.18;99.65;100689.69;5130003;28;20055;-53
2022/09/10 14:31:31;;;;;;;30.52;12.43;;;;;;;17.36;99.54;100685.66;5129546;28;20163;-52
2022/09/10 14:34:18;;;;;;;18.92;10.63;;;;;;;17.30;97.73;100705.22;5098306;28;20058;-52
2022/09/10 14:36:44;;;;;;;16.05;8.82;;;;;;;17.25;96.89;100701.28;5069980;28;20075;-52
2022/09/10 14:39:18;;;;;;;21.60;9.63;;;;;;;17.16;97.49;100709.69;5088253;28;20198;-51
2022/09/10 14:41:46;;;;;;;19.63;10.85;;;;;;;17.14;98.15;100711.75;5088703;28;20147;-53
2022/09/10 14:44:28;;;;;;;19.13;10.18;;;;;;;17.08;98.60;100721.38;5088367;28;20184;-53
2022/09/10 14:46:59;;;;;;;23.23;9.90;;;;;;;17.09;98.26;100720.38;5073074;28;20057;-53
2022/09/10 14:49:30;;;;;;;20.63;10.82;;;;;;;17.03;99.29;100718.50;5068012;28;20049;-53
2022/09/10 14:51:58;;;;;;;19.23;10.73;;;;;;;17.10;100.00;100715.84;5068368;28;20069;-53
2022/09/10 14:54:27;;;;;;;18.15;10.45;;;;;;;17.01;98.45;100720.53;5067954;28;20102;-53
2022/09/10 14:56:56;;;;;;;15.50;10.20;;;;;;;17.10;99.16;100716.69;5066142;28;20041;-53
2022/09/10 14:59:30;;;;;;;16.48;10.75;;;;;;;17.03;100.00;100718.50;5054876;28;20386;-52
2022/09/10 15:01:59;;;;;;;20.75;10.85;;;;;;;17.04;99.74;100720.13;5054603;28;20044;-54
2022/09/10 15:04:28;;;;;;;17.75;11.27;;;;;;;17.07;99.62;100727.78;5041682;28;20049;-54
2022/09/10 15:06:57;;;;;;;16.63;10.27;;;;;;;17.02;98.19;100725.69;5094412;28;20051;-53
2022/09/10 15:09:26;;;;;;;16.80;10.63;;;;;;;17.02;98.67;100722.19;5094857;28;20048;-54
2022/09/10 15:11:57;;;;;;;21.58;10.77;;;;;;;16.99;100.00;100720.75;5094942;28;20317;-53
2022/09/10 15:14:24;;;;;;;14.73;9.38;;;;;;;17.02;99.51;100722.19;5095213;28;20044;-51
2022/09/10 15:16:51;;;;;;;22.85;9.05;;;;;;;17.05;97.89;100725.28;5076090;28;20044;-52
2022/09/10 15:19:19;;;;;;;18.15;9.10;;;;;;;16.98;98.73;100726.28;5094899;28;20048;-53
2022/09/10 15:21:47;;;;;;;20.02;8.85;;;;;;;16.97;98.08;100729.97;5095000;28;20044;-50
2022/09/10 15:24:17;;;;;;;17.35;8.90;;;;;;;17.00;98.70;100724.25;5094474;28;20036;-52
2022/09/10 15:26:45;;;;;;;17.13;7.78;;;;;;;17.00;97.17;100725.06;5094806;28;20040;-54
2022/09/10 15:29:13;;;;;;;12.43;7.32;;;;;;;16.91;97.60;100720.06;5094649;28;20451;-53
2022/09/10 15:31:41;;;;;;;11.13;7.20;;;;;;;16.93;97.51;100724.19;5094188;28;20076;-54
2022/09/10 15:34:08;;;;;;;14.40;6.57;;;;;;;16.84;96.27;100728.03;5094587;28;20048;-53
2022/09/10 15:36:37;;;;;;;12.95;5.72;;;;;;;16.84;95.38;100723.50;5093912;28;20047;-52
2022/09/10 15:39:05;;;;;;;15.60;5.60;;;;;;;16.89;95.08;100728.28;5076390;28;20105;-53
2022/09/10 15:41:33;;;;;;;12.32;5.10;;;;;;;16.91;95.46;100720.88;5094337;28;20424;-54
2022/09/10 15:44:02;;;;;;;10.18;5.25;;;;;;;16.93;94.94;100734.91;5094135;28;20048;-55
2022/09/10 15:46:29;;;;;;;10.25;4.63;;;;;;;16.83;94.87;100735.25;5093676;28;20454;-55
2022/09/10 15:48:58;;;;;;;10.27;4.85;;;;;;;16.92;94.50;100743.97;5094155;28;20050;-54
2022/09/10 15:51:25;;;;;;;11.88;4.95;;;;;;;16.98;94.81;100745.03;5093806;28;20047;-54
2022/09/10 15:53:53;;;;;;;12.88;5.32;;;;;;;16.92;95.54;100741.31;5094123;28;20475;-54
2022/09/10 15:56:24;;;;;;;13.05;5.30;;;;;;;16.98;95.23;100742.38;5094083;28;20050;-54
2022/09/10 15:58:55;;;;;;;10.70;4.93;;;;;;;17.07;94.46;100739.31;5093734;28;20071;-53
2022/09/10 16:01:23;;;;;;;13.10;5.40;;;;;;;17.10;95.78;100746.16;5094072;28;20067;-54
2022/09/10 16:03:54;;;;;;;14.23;5.68;;;;;;;17.03;95.08;100748.78;5075808;28;20070;-54
2022/09/10 16:06:23;;;;;;;13.75;5.70;;;;;;;17.10;96.01;100751.53;5074553;28;20051;-54
2022/09/10 16:08:53;;;;;;;11.07;5.55;;;;;;;17.08;96.26;100743.66;5072820;28;20040;-55
2022/09/10 16:11:20;;;;;;;11.60;5.50;;;;;;;16.98;96.41;100751.22;5073518;28;20473;-54
2022/09/10 16:13:46;;;;;;;14.50;5.80;;;;;;;17.04;96.60;100755.78;5073194;28;20044;-53
2022/09/10 16:16:18;;;;;;;15.80;6.10;;;;;;;16.94;96.88;100767.91;5055644;28;20033;-53
2022/09/10 16:18:45;;;;;;;13.35;7.05;;;;;;;16.95;98.23;100769.53;5073293;28;20072;-53
2022/09/10 16:21:17;;;;;;;13.07;7.25;;;;;;;16.96;100.00;100773.88;5073180;28;20449;-52
2022/09/10 16:23:46;;;;;;;15.32;8.18;;;;;;;16.82;100.00;100771.06;5073523;28;20440;-54
2022/09/10 16:26:16;;;;;;;15.82;8.25;;;;;;;16.84;100.00;100763.69;5055256;28;20036;-53
2022/09/10 16:29:01;;;;;;;18.33;8.50;;;;;;;16.87;100.00;100763.31;5073634;28;20068;-53
2022/09/10 16:31:34;;;;;;;14.32;8.38;;;;;;;16.87;100.00;100765.97;5073187;28;20055;-54
2022/09/10 16:34:03;;;;;;;15.77;8.70;;;;;;;16.83;100.00;100767.41;5066723;28;20037;-54
2022/09/10 16:36:32;;;;;;;14.45;8.68;;;;;;;16.83;100.00;100764.72;5073050;28;20432;-54
2022/09/10 16:39:01;;;;;;;15.15;8.90;;;;;;;16.84;100.00;100774.41;5072545;28;20040;-53
2022/09/10 16:41:28;;;;;;;19.25;9.38;;;;;;;16.86;100.00;100777.75;5072792;28;20090;-53
2022/09/10 16:43:58;;;;;;;15.45;9.45;;;;;;;16.85;100.00;100783.28;5072836;28;20050;-53
2022/09/10 16:46:26;;;;;;;19.13;9.55;;;;;;;16.91;100.00;100782.50;5072555;28;20475;-54
2022/09/10 16:48:53;;;;;;;24.13;10.07;;;;;;;16.93;100.00;100791.16;5072516;28;20051;-53
2022/09/10 16:51:23;;;;;;;20.75;10.45;;;;;;;16.95;100.00;100794.47;5072884;28;20049;-52
2022/09/10 16:53:55;;;;;;;18.60;10.98;;;;;;;16.95;100.00;100791.78;5072743;28;20545;-53
2022/09/10 16:56:24;;;;;;;19.23;10.30;;;;;;;16.95;100.00;100788.28;5072839;28;20048;-54
2022/09/10 16:58:51;;;;;;;21.30;11.38;;;;;;;16.98;100.00;100790.59;5072597;28;20132;-55
2022/09/10 17:01:19;;;;;;;19.70;11.07;;;;;;;17.05;100.00;100791.47;5072433;28;20048;-53
2022/09/10 17:03:49;;;;;;;19.10;10.75;;;;;;;16.99;100.00;100795.75;5072515;28;20056;-54
2022/09/10 17:06:19;;;;;;;21.27;12.00;;;;;;;17.13;100.00;100799.34;5089649;28;20040;-55
2022/09/10 17:08:46;;;;;;;21.40;12.15;;;;;;;17.14;100.00;100805.56;5092817;28;20077;-54
2022/09/10 17:11:15;;;;;;;22.50;11.65;;;;;;;16.98;100.00;100810.16;5092619;28;20044;-56
2022/09/10 17:13:42;;;;;;;22.30;12.15;;;;;;;17.04;100.00;100806.69;5093038;28;20097;-52
2022/09/10 17:16:32;;;;;;;23.63;12.85;;;;;;;17.03;100.00;100812.28;5092444;28;20044;-54
2022/09/10 17:19:01;;;;;;;20.77;12.50;;;;;;;17.15;100.00;100816.06;5074840;28;20052;-54
2022/09/10 17:21:30;;;;;;;21.48;12.48;;;;;;;17.12;100.00;100818.31;5092221;28;20040;-53
2022/09/10 17:23:58;;;;;;;22.02;13.52;;;;;;;17.06;100.00;100817.22;5057527;28;20416;-54
2022/09/10 17:26:25;;;;;;;21.35;13.32;;;;;;;17.06;100.00;100815.41;5092579;28;20097;-53
2022/09/10 17:28:54;;;;;;;20.88;13.25;;;;;;;17.21;100.00;100827.88;5092605;28;20131;-56
2022/09/10 17:31:21;;;;;;;21.45;12.93;;;;;;;17.14;100.00;100830.50;5092194;28;20051;-53
2022/09/10 17:33:48;;;;;;;22.25;12.88;;;;;;;17.12;100.00;100831.69;5057793;28;20040;-52
2022/09/10 17:36:14;;;;;;;20.10;13.55;;;;;;;17.01;100.00;100833.91;5092542;28;20052;-54
2022/09/10 17:38:42;;;;;;;25.27;13.82;;;;;;;17.00;100.00;100842.13;5074216;28;20444;-54
2022/09/10 17:41:11;;;;;;;24.17;14.70;;;;;;;17.04;100.00;100846.09;5092684;28;20481;-54
2022/09/10 17:43:38;;;;;;;22.02;13.85;;;;;;;17.03;100.00;100849.81;5091939;28;20404;-54
2022/09/10 17:46:06;;;;;;;25.25;15.73;;;;;;;16.95;100.00;100849.94;5086749;28;20101;-52
2022/09/10 17:48:34;;;;;;;24.23;14.82;;;;;;;16.95;100.00;100860.66;5111693;28;20044;-54
2022/09/10 17:51:01;;;;;;;23.08;14.35;;;;;;;16.95;100.00;100860.66;5112328;28;20047;-54
2022/09/10 17:53:29;;;;;;;22.77;15.02;;;;;;;16.83;100.00;100861.16;5112370;28;20416;-56
2022/09/10 17:56:01;;;;;;;28.45;16.42;;;;;;;16.80;100.00;100872.22;5112716;28;20047;-54
2022/09/10 17:58:31;;;;;;;29.27;16.33;;;;;;;16.78;100.00;100870.78;5110777;28;20035;-54
2022/09/10 18:01:01;;;;;;;23.25;15.40;;;;;;;16.73;100.00;100878.53;5112594;28;20066;-53
2022/09/10 18:03:28;;;;;;;26.17;16.83;;;;;;;16.73;100.00;100865.97;5112425;28;20404;-54
2022/09/10 18:05:55;;;;;;;29.33;16.50;;;;;;;16.78;100.00;100878.81;5097011;28;20101;-53
2022/09/10 18:08:22;;;;;;;27.75;16.95;;;;;;;16.86;100.00;100882.22;5091925;28;20036;-54
2022/09/10 18:11:01;;;;;;;28.05;17.08;;;;;;;16.86;100.00;100879.53;5091986;28;20040;-52
2022/09/10 18:13:28;;;;;;;30.10;17.60;;;;;;;16.91;100.00;100883.50;5091720;28;20051;-53
2022/09/10 18:15:55;;;;;;;29.70;18.48;;;;;;;16.90;100.00;100888.03;5092243;28;20047;-54
2022/09/10 18:18:21;;;;;;;29.55;18.65;;;;;;;16.89;100.00;100889.84;5091789;28;20489;-54
2022/09/10 18:20:48;;;;;;;26.65;18.02;;;;;;;16.90;100.00;100901.44;5091711;28;20040;-52
2022/09/10 18:23:15;;;;;;;30.17;18.42;;;;;;;16.92;100.00;100899.38;5091101;28;20072;-54
2022/09/10 18:25:42;;;;;;;32.15;18.10;;;;;;;16.95;100.00;100898.16;5091716;28;20051;-54
2022/09/10 18:28:11;;;;;;;33.63;18.65;;;;;;;16.82;100.00;100907.69;5090691;28;20475;-54
2022/09/10 18:30:37;;;;;;;35.33;17.88;;;;;;;16.82;100.00;100915.72;5091938;28;20052;-54
2022/09/10 18:33:05;;;;;;;31.13;17.88;;;;;;;16.87;100.00;100920.56;5093174;28;20496;-54
2022/09/10 18:35:34;;;;;;;32.53;18.52;;;;;;;16.84;100.00;100919.06;5089826;28;20080;-54
2022/09/10 18:38:01;;;;;;;27.63;17.85;;;;;;;16.85;100.00;100927.97;5095553;28;20043;-54
2022/09/10 18:40:28;;;;;;;31.50;18.48;;;;;;;16.77;100.00;100933.41;5094691;28;20047;-53
2022/09/10 18:42:55;;;;;;;28.52;17.85;;;;;;;16.79;100.00;100929.53;5094353;28;20093;-54
2022/09/10 18:45:22;;;;;;;29.60;18.50;;;;;;;16.95;100.00;100941.84;5093159;28;20105;-53
2022/09/10 18:47:48;;;;;;;29.58;18.83;;;;;;;16.88;100.00;100949.00;5074791;28;20037;-54
2022/09/10 18:50:15;;;;;;;27.60;18.38;;;;;;;16.88;100.00;100949.84;5075254;28;20094;-54
2022/09/10 18:52:42;;;;;;;28.20;18.23;;;;;;;16.86;100.00;100951.03;5074684;28;20090;-54
2022/09/10 18:55:09;;;;;;;28.63;18.60;;;;;;;16.87;100.00;100961.56;5075074;28;20098;-54
2022/09/10 18:57:36;;;;;;;32.05;18.40;;;;;;;16.84;100.00;100963.78;5075052;28;20067;-54
2022/09/10 19:00:03;;;;;;;27.92;19.13;;;;;;;16.83;100.00;100967.50;5074775;28;20055;-54
2022/09/10 19:02:29;;;;;;;30.33;19.70;;;;;;;16.86;100.00;100967.09;5075036;28;20048;-54
2022/09/10 19:04:58;;;;;;;32.00;20.20;;;;;;;16.67;100.00;100963.19;5081005;28;20050;-55
2022/09/10 19:07:40;;;;;;;30.58;19.10;;;;;;;16.76;100.00;100975.44;5061179;28;20064;-53
2022/09/10 19:10:07;;;;;;;32.50;18.27;;;;;;;16.66;100.00;100980.25;5037158;28;20064;-53
2022/09/10 19:12:34;;;;;;;32.50;19.20;;;;;;;16.70;100.00;100978.88;5054585;28;20048;-55
2022/09/10 19:15:01;;;;;;;28.92;18.10;;;;;;;16.70;100.00;100981.56;5054490;28;20048;-54
2022/09/10 19:17:27;;;;;;;30.23;19.30;;;;;;;16.62;100.00;100987.84;5062984;28;20040;-54
2022/09/10 19:19:54;;;;;;;31.83;20.20;;;;;;;16.73;100.00;100988.38;5065295;28;20527;-51
2022/09/10 19:22:21;;;;;;;36.75;22.45;;;;;;;16.74;100.00;100985.50;5061159;28;20051;-55
2022/09/10 19:24:47;;;;;;;30.55;17.95;;;;;;;16.66;100.00;100996.31;5069205;28;20492;-55
2022/09/10 19:27:20;;;;;;;31.50;17.95;;;;;;;16.63;100.00;101004.75;5053070;28;20495;-53
2022/09/10 19:29:48;;;;;;;28.88;17.20;;;;;;;16.71;100.00;101007.31;5054879;28;20049;-54